Time;durP1;ratioP1;P1;durP2;ratioP2;P2;SDS_P1;SDS_P2;PMS_P1;PMS_P2;Temp;Humidity;BMP_temperature;BMP_pressure;BME280_temperature;BME280_humidity;BME280_pressure;Samples;Min_cycle;Max_cycle;Signal;HPM_P1;HPM_P2
2023/04/22 00:02:22;;;;;;;3.00;2.80;;;;;;;7.43;100.00;95794.34;5031518;27;101895;-60
2023/04/22 00:04:49;;;;;;;3.20;2.90;;;;;;;7.19;100.00;95793.78;5030013;28;103917;-60
2023/04/22 00:07:17;;;;;;;3.33;3.03;;;;;;;7.03;100.00;95805.16;5030673;27;102805;-60
2023/04/22 00:09:44;;;;;;;3.40;3.10;;;;;;;7.18;100.00;95813.31;5031123;27;101825;-60
2023/04/22 00:12:13;;;;;;;4.17;2.90;;;;;;;7.13;100.00;95805.31;5031204;27;102557;-60
2023/04/22 00:14:40;;;;;;;3.40;3.10;;;;;;;7.09;100.00;95809.47;5030686;27;103021;-60
2023/04/22 00:17:07;;;;;;;6.17;3.60;;;;;;;7.09;100.00;95803.41;5031112;27;101874;-60
2023/04/22 00:19:34;;;;;;;4.83;3.13;;;;;;;7.14;100.00;95806.13;5032619;28;103723;-60
2023/04/22 00:22:01;;;;;;;3.53;3.17;;;;;;;7.13;100.00;95804.50;5030709;27;102382;-60
2023/04/22 00:24:28;;;;;;;5.40;3.80;;;;;;;7.19;100.00;95807.00;5030445;27;102839;-60
2023/04/22 00:26:55;;;;;;;4.63;3.93;;;;;;;7.17;100.00;95808.28;5030406;27;102443;-60
2023/04/22 00:29:23;;;;;;;3.83;3.17;;;;;;;7.11;100.00;95810.06;5029471;28;101901;-60
2023/04/22 00:31:50;;;;;;;4.37;3.40;;;;;;;7.21;100.00;95802.25;5029471;28;103950;-60
2023/04/22 00:34:18;;;;;;;4.70;3.50;;;;;;;7.02;100.00;95802.75;5028898;28;104254;-60
2023/04/22 00:36:45;;;;;;;3.53;3.23;;;;;;;7.03;100.00;95810.44;5029196;28;101861;-60
2023/04/22 00:39:13;;;;;;;3.97;2.73;;;;;;;7.06;100.00;95803.88;5029504;28;105138;-60
2023/04/22 00:41:40;;;;;;;3.50;3.00;;;;;;;7.04;100.00;95798.84;5032045;28;105320;-60
2023/04/22 00:44:10;;;;;;;4.63;3.10;;;;;;;7.00;100.00;95791.63;5029138;28;105094;-60
2023/04/22 00:46:39;;;;;;;3.57;2.60;;;;;;;6.73;100.00;95793.34;5028744;28;105780;-60
2023/04/22 00:49:07;;;;;;;3.37;2.83;;;;;;;6.56;100.00;95792.53;5028726;27;102454;-60
2023/04/22 00:51:34;;;;;;;3.73;2.27;;;;;;;6.29;100.00;95804.75;5029325;28;105399;-60
2023/04/22 00:54:02;;;;;;;2.77;2.57;;;;;;;6.35;100.00;95803.78;5028472;28;105615;-60
2023/04/22 01:11:39;;;;;;;3.20;2.90;;;;;;;6.07;100.00;95804.63;5026680;28;101830;-60
2023/04/22 01:14:06;;;;;;;2.80;2.60;;;;;;;6.25;100.00;95812.34;5029059;28;101871;-60
2023/04/22 01:16:34;;;;;;;3.40;3.10;;;;;;;6.29;100.00;95807.38;5028871;28;105178;-60
2023/04/22 01:19:02;;;;;;;3.23;2.93;;;;;;;6.40;100.00;95806.53;5028017;28;104400;-60
2023/04/22 01:21:32;;;;;;;3.57;3.27;;;;;;;6.36;100.00;95803.56;5028935;28;101902;-60
2023/04/22 01:24:00;;;;;;;4.43;2.83;;;;;;;6.42;100.00;95812.34;5028283;28;105217;-60
2023/04/22 01:26:28;;;;;;;3.40;3.10;;;;;;;6.42;100.00;95807.06;5028240;28;105698;-60
2023/04/22 01:28:56;;;;;;;5.90;3.47;;;;;;;6.51;100.00;95806.47;5031988;28;102031;-60
2023/04/22 01:31:24;;;;;;;3.80;3.50;;;;;;;6.52;100.00;95807.25;5028120;28;105544;-60
2023/04/22 01:33:51;;;;;;;3.63;3.13;;;;;;;6.41;100.00;95816.03;5028577;28;101831;-60
2023/04/22 01:36:18;;;;;;;3.00;2.70;;;;;;;6.43;100.00;95803.41;5028834;28;105052;-60
2023/04/22 01:38:45;;;;;;;3.20;2.90;;;;;;;6.45;100.00;95810.06;5029270;27;103107;-60
2023/04/22 01:41:14;;;;;;;3.20;2.90;;;;;;;6.42;100.00;95807.06;5028678;28;101890;-60
2023/04/22 01:43:42;;;;;;;3.10;2.80;;;;;;;6.35;100.00;95811.72;5028259;28;105172;-60
2023/04/22 01:46:09;;;;;;;2.90;2.70;;;;;;;6.39;100.00;95818.91;5028110;28;104552;-60
2023/04/22 01:48:36;;;;;;;4.20;3.40;;;;;;;6.41;100.00;95811.56;5028424;28;101908;-60
2023/04/22 01:51:03;;;;;;;3.43;3.13;;;;;;;6.20;100.00;95814.06;5031200;28;105321;-60
2023/04/22 01:53:31;;;;;;;5.50;3.00;;;;;;;6.33;100.00;95816.44;5028326;28;101863;-60
2023/04/22 01:55:57;;;;;;;3.00;2.70;;;;;;;6.33;100.00;95814.59;5029963;27;102439;-60
2023/04/22 01:58:29;;;;;;;3.07;2.60;;;;;;;6.30;100.00;95815.06;5027776;28;105967;-60
2023/04/22 02:00:57;;;;;;;3.40;3.10;;;;;;;6.27;100.00;95815.53;5029500;28;101907;-60
2023/04/22 02:03:24;;;;;;;3.20;2.90;;;;;;;6.22;100.00;95817.31;5031608;28;103738;-60
2023/04/22 02:05:51;;;;;;;3.83;3.53;;;;;;;6.14;100.00;95820.31;5031035;28;103964;-60
2023/04/22 02:08:18;;;;;;;3.70;3.40;;;;;;;5.92;100.00;95816.72;5031845;28;102095;-60
2023/04/22 02:10:45;;;;;;;3.33;3.00;;;;;;;5.92;100.00;95817.53;5031792;28;105356;-60
2023/04/22 02:13:13;;;;;;;3.30;3.00;;;;;;;6.03;100.00;95821.16;5034470;28;105464;-60
2023/04/22 02:15:41;;;;;;;3.20;2.90;;;;;;;5.94;100.00;95815.44;5031719;28;105479;-60
2023/04/22 02:18:09;;;;;;;3.90;3.10;;;;;;;5.88;100.00;95821.69;5030908;28;103750;-60
2023/04/22 02:20:36;;;;;;;3.40;3.10;;;;;;;5.91;100.00;95813.31;5031602;28;101863;-60
2023/04/22 02:23:04;;;;;;;4.37;3.20;;;;;;;6.00;100.00;95819.00;5032603;27;102554;-60
2023/04/22 02:25:31;;;;;;;3.23;2.93;;;;;;;6.01;100.00;95823.25;5032205;27;102673;-60
2023/04/22 02:27:58;;;;;;;3.03;2.73;;;;;;;5.76;100.00;95812.16;5031516;28;102190;-60
2023/04/22 02:30:25;;;;;;;3.20;2.90;;;;;;;5.89;100.00;95820.63;5031537;28;104996;-60
2023/04/22 02:32:54;;;;;;;4.20;2.90;;;;;;;5.96;100.00;95818.69;5032064;27;102445;-60
2023/04/22 02:35:21;;;;;;;3.80;3.37;;;;;;;5.96;100.00;95823.97;5034649;28;102324;-60
2023/04/22 02:37:51;;;;;;;3.63;3.33;;;;;;;6.04;100.00;95825.41;5030498;28;105739;-60
2023/04/22 02:40:18;;;;;;;4.13;3.10;;;;;;;5.97;100.00;95822.09;5032706;27;101723;-60
2023/04/22 02:42:47;;;;;;;3.37;3.00;;;;;;;5.93;100.00;95815.69;5031090;28;104251;-60
2023/04/22 02:45:15;;;;;;;3.37;3.07;;;;;;;5.90;100.00;95821.44;5030564;28;105525;-60
2023/04/22 02:47:43;;;;;;;3.80;2.90;;;;;;;5.70;100.00;95821.00;5030965;28;101790;-60
2023/04/22 02:50:13;;;;;;;2.83;2.63;;;;;;;5.61;100.00;95822.41;5031156;28;105720;-60
2023/04/22 02:52:39;;;;;;;2.63;2.33;;;;;;;5.69;100.00;95822.84;5030403;28;104050;-60
2023/04/22 02:55:08;;;;;;;2.97;2.77;;;;;;;5.66;100.00;95812.75;5031195;28;101861;-60
2023/04/22 02:57:35;;;;;;;3.80;3.10;;;;;;;5.65;100.00;95815.63;5035260;27;102408;-61
2023/04/22 03:00:03;;;;;;;2.80;2.60;;;;;;;5.74;100.00;95814.25;5030714;28;101879;-60
2023/04/22 03:02:30;;;;;;;3.53;3.23;;;;;;;5.69;100.00;95806.22;5013175;28;105694;-60
2023/04/22 03:05:10;;;;;;;3.10;2.80;;;;;;;5.60;100.00;95818.16;5010428;28;105263;-60
2023/04/22 03:07:39;;;;;;;3.50;3.20;;;;;;;5.54;100.00;95824.38;5010639;28;101851;-60
2023/04/22 03:10:07;;;;;;;4.20;3.40;;;;;;;5.59;100.00;95813.94;5010759;28;105394;-60
2023/04/22 03:12:34;;;;;;;3.63;3.27;;;;;;;5.40;100.00;95812.50;5009937;28;105597;-60
2023/04/22 03:15:02;;;;;;;4.33;3.30;;;;;;;5.31;100.00;95808.59;5010667;28;101970;-60
2023/04/22 03:17:31;;;;;;;3.77;3.37;;;;;;;5.24;100.00;95813.19;5011504;28;102899;-60
2023/04/22 03:20:00;;;;;;;4.57;3.30;;;;;;;5.07;100.00;95812.28;5013577;28;104977;-60
2023/04/22 03:22:27;;;;;;;4.17;3.37;;;;;;;5.18;100.00;95809.63;5010300;28;105210;-61
2023/04/22 03:25:03;;;;;;;3.07;2.80;;;;;;;5.18;100.00;95804.38;5009960;28;105162;-60
2023/04/22 03:27:31;;;;;;;3.73;3.00;;;;;;;5.10;100.00;95807.38;5010329;28;101851;-60
2023/04/22 03:29:58;;;;;;;3.90;3.60;;;;;;;5.01;100.00;95803.47;5010371;28;105459;-60
2023/04/22 03:32:25;;;;;;;2.87;2.67;;;;;;;4.89;100.00;95801.84;5009765;28;105199;-60
2023/04/22 03:35:06;;;;;;;5.17;3.53;;;;;;;5.12;100.00;95805.28;5010242;28;102118;-60
2023/04/22 03:37:32;;;;;;;3.67;3.37;;;;;;;5.00;100.00;95807.13;5010326;28;105567;-60
2023/04/22 03:40:01;;;;;;;4.00;3.70;;;;;;;4.89;100.00;95800.03;5013261;28;105057;-60
2023/04/22 03:42:29;;;;;;;4.57;3.67;;;;;;;4.85;100.00;95817.31;5010115;28;104877;-60
2023/04/22 03:44:57;;;;;;;3.47;3.20;;;;;;;4.71;100.00;95821.22;5009411;28;105001;-60
2023/04/22 03:47:28;;;;;;;4.37;3.50;;;;;;;4.66;100.00;95815.00;5009915;28;101760;-60
2023/04/22 03:50:02;;;;;;;4.10;3.70;;;;;;;4.88;100.00;95822.16;5010319;28;103923;-60
2023/04/22 03:52:31;;;;;;;4.33;3.93;;;;;;;4.91;100.00;95820.88;5009354;28;105058;-60
2023/04/22 03:55:03;;;;;;;5.10;4.60;;;;;;;5.02;100.00;95815.59;5010100;28;101854;-60
2023/04/22 03:57:31;;;;;;;4.40;4.00;;;;;;;5.04;100.00;95815.38;5009751;28;104686;-60
2023/04/22 03:59:59;;;;;;;4.40;3.90;;;;;;;4.97;100.00;95818.13;5009359;28;104971;-60
2023/04/22 04:02:26;;;;;;;3.60;3.30;;;;;;;4.92;100.00;95819.84;5013313;28;101885;-60
2023/04/22 04:04:54;;;;;;;5.57;3.73;;;;;;;4.94;100.00;95829.13;5009206;28;104340;-60
2023/04/22 04:07:22;;;;;;;3.30;3.10;;;;;;;4.70;100.00;95822.22;5009860;28;101968;-60
2023/04/22 04:09:51;;;;;;;3.60;3.30;;;;;;;4.80;100.00;95829.59;5009710;28;104879;-60
2023/04/22 04:12:20;;;;;;;3.90;3.50;;;;;;;4.79;100.00;95827.97;5008895;28;105803;-60
2023/04/22 04:14:47;;;;;;;4.17;3.33;;;;;;;4.77;100.00;95828.22;5009636;28;101956;-60
2023/04/22 04:17:17;;;;;;;3.67;3.27;;;;;;;4.69;100.00;95820.63;5009745;28;104940;-60
2023/04/22 04:19:45;;;;;;;3.73;3.43;;;;;;;4.72;100.00;95816.75;5008950;28;104453;-60
2023/04/22 04:22:12;;;;;;;5.40;4.30;;;;;;;4.87;100.00;95822.38;5010643;28;101841;-60
2023/04/22 04:24:49;;;;;;;4.07;3.67;;;;;;;4.95;100.00;95819.38;5011661;28;105272;-60
2023/04/22 04:27:22;;;;;;;4.27;3.83;;;;;;;5.04;100.00;95820.66;5009439;28;101799;-60
2023/04/22 04:29:54;;;;;;;5.40;4.10;;;;;;;5.07;100.00;95828.09;5009178;28;105161;-60
2023/04/22 04:32:34;;;;;;;4.40;3.67;;;;;;;5.12;100.00;95820.31;5009026;28;105102;-60
2023/04/22 04:35:04;;;;;;;4.40;4.00;;;;;;;5.18;100.00;95822.03;5009697;28;102213;-60
2023/04/22 04:37:31;;;;;;;5.63;4.60;;;;;;;5.16;100.00;95826.72;5009494;28;105056;-60
2023/04/22 04:40:05;;;;;;;4.30;3.90;;;;;;;5.30;100.00;95834.13;5008732;28;104673;-60
2023/04/22 04:42:44;;;;;;;4.80;4.40;;;;;;;5.23;100.00;95832.69;5009141;28;101904;-60
2023/04/22 04:45:18;;;;;;;4.07;3.70;;;;;;;5.27;100.00;95824.06;5009340;28;104965;-60
2023/04/22 04:47:46;;;;;;;3.90;3.60;;;;;;;5.35;100.00;95830.84;5012052;28;105004;-60
2023/04/22 04:50:20;;;;;;;4.00;3.60;;;;;;;5.45;100.00;95825.78;5009483;28;104977;-60
2023/04/22 04:52:48;;;;;;;4.43;3.87;;;;;;;5.51;100.00;95828.28;5008458;28;105459;-60
2023/04/22 04:55:17;;;;;;;4.13;3.73;;;;;;;5.65;100.00;95828.81;5009044;28;101875;-60
2023/04/22 04:57:46;;;;;;;4.70;4.30;;;;;;;5.76;100.00;95839.34;5009284;28;104795;-60
2023/04/22 05:00:14;;;;;;;4.20;3.80;;;;;;;5.87;100.00;95829.81;5008430;28;105150;-60
2023/04/22 05:02:42;;;;;;;4.87;3.90;;;;;;;5.90;100.00;95829.38;5009049;28;101976;-60
2023/04/22 05:05:10;;;;;;;4.53;3.50;;;;;;;6.00;100.00;95834.84;5009138;28;104624;-60
2023/04/22 05:07:39;;;;;;;4.07;3.77;;;;;;;6.06;100.00;95839.97;5008266;28;105410;-60
2023/04/22 05:10:09;;;;;;;4.03;3.70;;;;;;;6.15;100.00;95843.84;5012284;28;102072;-60
2023/04/22 05:12:37;;;;;;;4.03;3.60;;;;;;;6.22;100.00;95836.56;5008130;28;105597;-60
2023/04/22 05:15:08;;;;;;;4.13;3.73;;;;;;;6.33;100.00;95842.84;5008996;28;101912;-60
2023/04/22 05:17:37;;;;;;;4.63;4.23;;;;;;;6.47;100.00;95841.50;5008600;28;104155;-60
2023/04/22 05:20:04;;;;;;;5.10;4.60;;;;;;;6.53;100.00;95838.72;5008305;28;105673;-60
2023/04/22 05:22:32;;;;;;;4.93;4.53;;;;;;;6.62;100.00;95845.22;5008360;28;101964;-61
2023/04/22 05:24:59;;;;;;;4.73;4.33;;;;;;;6.80;100.00;95844.16;5008442;28;105154;-60
2023/04/22 05:27:26;;;;;;;5.10;4.70;;;;;;;6.81;100.00;95838.66;5008225;28;103744;-60
2023/04/22 05:29:52;;;;;;;5.03;4.53;;;;;;;6.98;100.00;95839.44;5008342;28;101909;-60
2023/04/22 05:32:26;;;;;;;6.33;4.63;;;;;;;7.21;100.00;95838.47;5011234;28;104544;-60
2023/04/22 05:34:54;;;;;;;5.37;4.87;;;;;;;7.48;100.00;95834.88;5008587;28;101909;-60
2023/04/22 05:37:21;;;;;;;4.97;4.57;;;;;;;7.61;100.00;95836.38;5011725;28;104696;-60
2023/04/22 05:39:50;;;;;;;5.50;4.90;;;;;;;7.70;100.00;95837.56;5011552;28;105402;-60
2023/04/22 05:42:18;;;;;;;6.77;5.60;;;;;;;7.81;100.00;95831.34;5011862;28;102051;-60
2023/04/22 05:44:44;;;;;;;5.63;5.03;;;;;;;7.88;100.00;95837.25;5012062;28;105028;-60
2023/04/22 05:47:11;;;;;;;6.00;5.07;;;;;;;8.06;100.00;95831.63;5012749;28;102506;-60
2023/04/22 05:49:40;;;;;;;6.30;5.50;;;;;;;8.29;100.00;95832.19;5012005;28;101950;-60
2023/04/22 05:52:17;;;;;;;12.47;10.73;;;;;;;8.23;100.00;95827.13;5014671;28;104892;-60
2023/04/22 05:54:55;;;;;;;13.77;10.40;;;;;;;8.45;100.00;95835.81;5010820;28;102006;-60
2023/04/22 05:57:23;;;;;;;8.57;7.77;;;;;;;8.59;100.00;95835.16;5010687;28;104821;-59
2023/04/22 05:59:50;;;;;;;7.83;7.00;;;;;;;8.88;100.00;95831.16;5011313;28;105448;-60
2023/04/22 06:02:18;;;;;;;7.33;6.60;;;;;;;9.02;100.00;95831.53;5011767;28;101876;-59
2023/04/22 06:04:48;;;;;;;5.20;4.70;;;;;;;8.98;100.00;95836.56;5011659;28;105249;-59
2023/04/22 06:07:15;;;;;;;5.43;4.93;;;;;;;9.29;100.00;95832.28;5011148;28;105313;-60
2023/04/22 06:09:42;;;;;;;4.90;4.37;;;;;;;9.44;100.00;95835.03;5011191;28;101892;-59
2023/04/22 06:12:08;;;;;;;5.37;4.77;;;;;;;9.71;100.00;95830.41;5011942;28;105713;-60
2023/04/22 06:14:36;;;;;;;5.00;4.60;;;;;;;9.86;100.00;95831.25;5014414;28;103848;-59
2023/04/22 06:17:03;;;;;;;4.93;4.53;;;;;;;10.13;100.00;95831.13;5011566;28;104873;-59
2023/04/22 06:19:30;;;;;;;4.17;3.77;;;;;;;9.92;100.00;95826.78;4993690;28;105177;-59
2023/04/22 06:21:58;;;;;;;4.43;4.03;;;;;;;10.02;100.00;95830.28;4991582;28;102018;-59
2023/04/22 06:24:25;;;;;;;4.13;3.73;;;;;;;10.18;100.00;95829.28;4990949;28;105220;-59
2023/04/22 06:26:55;;;;;;;4.33;3.40;;;;;;;10.29;100.00;95840.75;4990805;28;105547;-60
2023/04/22 06:29:22;;;;;;;4.30;3.17;;;;;;;10.26;100.00;95835.97;4991473;28;101992;-59
2023/04/22 06:31:49;;;;;;;3.70;3.13;;;;;;;10.31;100.00;95833.31;4991474;28;105066;-60
2023/04/22 06:34:18;;;;;;;3.77;3.07;;;;;;;10.38;100.00;95826.72;4991958;28;102689;-60
2023/04/22 06:36:44;;;;;;;3.03;2.83;;;;;;;10.69;100.00;95838.19;4994521;28;101896;-60
2023/04/22 06:39:13;;;;;;;3.60;3.30;;;;;;;10.89;100.00;95828.38;4996995;28;105483;-59
2023/04/22 06:42:04;;;;;;;8.40;3.30;;;;;;;10.79;100.00;95825.69;5005653;28;103106;-60
2023/04/22 06:44:52;;;;;;;3.20;3.00;;;;;;;10.92;100.00;95832.34;4970625;28;102489;-59
2023/04/22 06:47:45;;;;;;;2.93;2.63;;;;;;;10.89;100.00;95833.69;4989844;28;105245;-60
2023/04/22 06:50:20;;;;;;;3.50;2.80;;;;;;;11.15;100.00;95840.63;4990793;28;102240;-59
2023/04/22 06:52:55;;;;;;;3.03;2.83;;;;;;;11.20;100.00;95842.47;4990612;28;105148;-60
2023/04/22 06:55:26;;;;;;;3.70;2.90;;;;;;;11.33;100.00;95836.63;4990174;28;105086;-59
2023/04/22 06:57:53;;;;;;;2.93;2.40;;;;;;;11.40;100.00;95839.78;4990656;28;101947;-59
2023/04/22 07:00:20;;;;;;;2.03;1.93;;;;;;;11.59;100.00;95843.50;4993271;28;105482;-60
2023/04/22 07:02:47;;;;;;;3.27;2.50;;;;;;;11.49;100.00;95843.50;4990675;28;101963;-60
2023/04/22 07:05:16;;;;;;;2.40;2.20;;;;;;;11.75;100.00;95850.41;4989334;28;105570;-60
2023/04/22 07:07:44;;;;;;;2.20;2.00;;;;;;;11.86;100.00;95843.97;4989661;28;104379;-60
2023/04/22 07:10:17;;;;;;;2.50;2.30;;;;;;;12.10;100.00;95834.31;4990692;28;101798;-59
2023/04/22 07:13:04;;;;;;;2.53;2.33;;;;;;;12.01;100.00;95838.59;4990576;28;103911;-59
2023/04/22 07:15:31;;;;;;;3.80;2.43;;;;;;;12.14;100.00;95835.34;4991296;28;102804;-60
2023/04/22 07:17:58;;;;;;;3.93;2.73;;;;;;;12.13;100.00;95834.56;4990521;28;102010;-60
2023/04/22 07:20:25;;;;;;;2.63;2.20;;;;;;;12.41;100.00;95830.41;4990565;28;104176;-59
2023/04/22 07:22:52;;;;;;;2.83;2.57;;;;;;;12.54;100.00;95827.16;4991987;28;104997;-60
2023/04/22 07:25:19;;;;;;;2.30;2.03;;;;;;;12.69;100.00;95827.03;4991798;28;102328;-60
2023/04/22 07:27:46;;;;;;;2.70;2.50;;;;;;;13.16;100.00;95827.28;4989940;28;104996;-59
2023/04/22 07:30:15;;;;;;;2.00;1.90;;;;;;;13.39;100.00;95821.19;4990594;28;101911;-59
2023/04/22 07:32:41;;;;;;;2.10;1.90;;;;;;;13.87;100.00;95828.19;4990553;28;105550;-59
2023/04/22 07:35:08;;;;;;;4.30;2.10;;;;;;;13.97;100.00;95822.72;4989254;28;105330;-59
2023/04/22 07:37:35;;;;;;;3.03;2.10;;;;;;;14.31;100.00;95823.41;4990202;28;101806;-59
2023/04/22 07:40:02;;;;;;;2.13;2.03;;;;;;;14.50;100.00;95821.56;4991802;28;102298;-60
2023/04/22 07:42:29;;;;;;;2.60;2.10;;;;;;;14.60;100.00;95829.47;4989386;28;105319;-60
2023/04/22 07:44:56;;;;;;;2.10;1.93;;;;;;;14.79;100.00;95822.22;4993609;28;101838;-60
2023/04/22 07:47:25;;;;;;;2.30;1.90;;;;;;;14.94;100.00;95822.00;4991062;28;102588;-60
2023/04/22 07:49:52;;;;;;;1.50;1.40;;;;;;;15.23;100.00;95827.97;4990210;28;101878;-61
2023/04/22 07:52:19;;;;;;;1.80;1.70;;;;;;;15.18;100.00;95828.03;4991528;28;101825;-59
2023/04/22 07:54:46;;;;;;;1.80;1.70;;;;;;;15.03;100.00;95825.59;4989332;28;104039;-60
2023/04/22 07:57:13;;;;;;;1.70;1.60;;;;;;;15.06;100.00;95838.41;4991324;28;101958;-59
2023/04/22 07:59:40;;;;;;;1.73;1.60;;;;;;;15.04;100.00;95838.69;4989183;28;105149;-59
2023/04/22 08:02:08;;;;;;;1.73;1.63;;;;;;;15.09;100.00;95827.13;4991060;28;102698;-59
2023/04/22 08:04:40;;;;;;;2.33;1.80;;;;;;;14.53;100.00;95832.47;4994488;28;102268;-59
2023/04/22 08:07:07;;;;;;;3.10;1.80;;;;;;;14.58;100.00;95827.06;4989484;28;105428;-59
2023/04/22 08:09:34;;;;;;;2.20;2.00;;;;;;;14.91;100.00;95833.28;4991502;28;101863;-59
2023/04/22 08:12:01;;;;;;;2.40;1.80;;;;;;;15.50;100.00;95820.84;4991186;28;102444;-59
2023/04/22 08:14:28;;;;;;;1.80;1.70;;;;;;;15.53;100.00;95824.81;4988848;28;105503;-59
2023/04/22 08:16:55;;;;;;;2.23;2.13;;;;;;;15.89;100.00;95818.50;4990805;28;101933;-59
2023/04/22 08:19:22;;;;;;;1.80;1.70;;;;;;;16.18;100.00;95818.22;4990741;28;102830;-59
2023/04/22 08:21:50;;;;;;;2.40;2.00;;;;;;;16.49;100.00;95817.31;4990314;28;103028;-59
2023/04/22 08:24:17;;;;;;;2.60;1.70;;;;;;;16.64;100.00;95814.31;4990170;28;102088;-59
2023/04/22 08:26:44;;;;;;;1.70;1.60;;;;;;;16.84;100.00;95813.06;4992212;28;105207;-59
2023/04/22 08:29:11;;;;;;;1.97;1.87;;;;;;;16.25;100.00;95810.56;4990875;28;101995;-59
2023/04/22 08:31:38;;;;;;;2.00;1.90;;;;;;;16.10;100.00;95818.91;4991016;28;102320;-59
2023/04/22 08:34:05;;;;;;;1.67;1.57;;;;;;;16.54;100.00;95819.09;4990101;28;102917;-59
2023/04/22 08:36:32;;;;;;;2.17;1.90;;;;;;;17.07;100.00;95811.97;4989428;28;102003;-59
2023/04/22 08:39:00;;;;;;;1.80;1.70;;;;;;;17.12;100.00;95809.19;4989113;28;105117;-59
2023/04/22 08:41:27;;;;;;;2.60;1.40;;;;;;;17.24;100.00;95806.72;4988722;28;104966;-59
2023/04/22 08:43:56;;;;;;;1.77;1.63;;;;;;;17.24;100.00;95806.72;4972548;28;102022;-59
2023/04/22 08:46:24;;;;;;;1.30;1.30;;;;;;;17.66;100.00;95804.31;4989335;28;104869;-59
2023/04/22 08:48:51;;;;;;;1.90;1.40;;;;;;;17.45;100.00;95802.47;4991646;28;105420;-59
2023/04/22 08:51:21;;;;;;;1.57;1.50;;;;;;;18.02;100.00;95799.59;4989396;28;105680;-59
2023/04/22 08:53:47;;;;;;;1.80;1.70;;;;;;;18.30;100.00;95802.84;4988513;28;104140;-59
2023/04/22 08:56:16;;;;;;;1.30;1.30;;;;;;;18.46;100.00;95798.63;4989194;28;101802;-59
2023/04/22 08:58:43;;;;;;;1.90;1.50;;;;;;;18.44;99.54;95798.16;4988830;28;105374;-59
2023/04/22 09:01:11;;;;;;;1.20;1.20;;;;;;;18.59;86.18;95800.41;4988518;28;105438;-59
2023/04/22 09:03:39;;;;;;;1.30;1.20;;;;;;;18.83;80.20;95796.16;4988780;28;101928;-59
2023/04/22 09:06:07;;;;;;;1.20;1.10;;;;;;;18.61;75.51;95803.59;4988849;28;103888;-59
2023/04/22 09:08:35;;;;;;;1.10;1.10;;;;;;;18.21;72.43;95794.75;4988036;28;105045;-59
2023/04/22 09:11:03;;;;;;;1.20;1.10;;;;;;;18.08;77.48;95792.16;4993623;28;102023;-59
2023/04/22 09:13:33;;;;;;;2.33;1.43;;;;;;;18.20;79.74;95800.47;4989190;28;101913;-59
2023/04/22 09:16:00;;;;;;;1.57;1.20;;;;;;;18.30;82.59;95800.16;4990258;28;101848;-59
2023/04/22 09:18:27;;;;;;;1.43;1.20;;;;;;;18.53;76.44;95797.06;4988673;28;105179;-59
2023/04/22 09:20:56;;;;;;;1.20;1.20;;;;;;;19.04;82.30;95797.13;4988071;28;105298;-59
2023/04/22 09:23:22;;;;;;;1.17;1.13;;;;;;;19.27;74.79;95795.88;4987676;28;102150;-59
2023/04/22 09:25:49;;;;;;;1.70;1.30;;;;;;;19.46;76.39;95799.00;4989806;28;102369;-59
2023/04/22 09:28:18;;;;;;;1.13;1.10;;;;;;;19.71;73.29;95784.66;4988198;28;105401;-59
2023/04/22 09:30:48;;;;;;;1.30;1.20;;;;;;;20.06;75.24;95791.50;4988684;28;102062;-59
2023/04/22 09:33:16;;;;;;;1.13;1.03;;;;;;;20.20;71.02;95781.34;4991383;28;104855;-59
2023/04/22 09:35:44;;;;;;;1.50;1.20;;;;;;;20.22;64.65;95783.72;4988315;28;101876;-59
2023/04/22 09:38:12;;;;;;;2.37;1.40;;;;;;;20.32;77.26;95788.75;4988592;28;105257;-59
2023/04/22 09:40:43;;;;;;;2.00;1.20;;;;;;;20.51;64.86;95776.41;4989215;28;102822;-59
2023/04/22 09:43:10;;;;;;;1.40;1.30;;;;;;;20.63;56.62;95779.19;4989804;28;102190;-59
2023/04/22 09:45:39;;;;;;;0.80;0.80;;;;;;;20.65;53.28;95770.75;4988420;28;104108;-59
2023/04/22 09:48:09;;;;;;;1.10;1.00;;;;;;;20.58;52.66;95773.97;4988433;28;102532;-59
2023/04/22 09:50:38;;;;;;;1.80;1.30;;;;;;;21.14;55.29;95770.69;4989416;28;101947;-59
2023/04/22 09:53:08;;;;;;;1.27;0.80;;;;;;;21.39;52.35;95768.88;4989209;28;102543;-59
2023/04/22 09:55:37;;;;;;;1.27;1.03;;;;;;;20.84;52.82;95762.97;4992094;28;101667;-59
2023/04/22 09:58:08;;;;;;;1.17;1.07;;;;;;;21.34;58.07;95764.47;4988473;28;105195;-59
2023/04/22 10:00:39;;;;;;;2.53;1.00;;;;;;;21.75;54.26;95758.97;4989015;28;102557;-59
2023/04/22 10:03:08;;;;;;;1.67;1.10;;;;;;;21.01;48.58;95758.25;4988229;28;101816;-59
2023/04/22 10:05:36;;;;;;;0.93;0.93;;;;;;;20.71;48.94;95758.63;4988240;28;105724;-59
2023/04/22 10:08:04;;;;;;;1.57;1.10;;;;;;;21.55;49.26;95756.28;4987278;28;105787;-59
2023/04/22 10:10:31;;;;;;;1.07;1.00;;;;;;;22.09;47.14;95760.47;4987864;28;101888;-59
2023/04/22 10:12:58;;;;;;;1.90;1.00;;;;;;;22.29;48.46;95748.75;4988157;28;105542;-59
2023/04/22 10:15:26;;;;;;;0.80;0.80;;;;;;;22.39;47.30;95746.34;4992419;28;102800;-59
2023/04/22 10:17:55;;;;;;;1.47;0.80;;;;;;;22.61;43.98;95750.56;4989258;28;102343;-59
2023/04/22 10:20:26;;;;;;;0.93;0.90;;;;;;;22.57;42.46;95744.22;4988952;28;103077;-59
2023/04/22 10:22:53;;;;;;;0.70;0.70;;;;;;;23.09;42.10;95753.13;4989719;28;101902;-59
2023/04/22 10:25:24;;;;;;;2.50;0.63;;;;;;;22.50;38.87;95742.09;4991489;28;105256;-59
2023/04/22 10:28:01;;;;;;;0.90;0.90;;;;;;;21.78;41.41;95741.25;4991986;28;102854;-59
2023/04/22 10:30:29;;;;;;;3.43;0.87;;;;;;;22.56;41.58;95737.22;4992944;28;102081;-59
2023/04/22 10:32:56;;;;;;;1.17;0.80;;;;;;;22.92;41.57;95737.94;4992609;28;102577;-59
2023/04/22 10:35:29;;;;;;;0.80;0.80;;;;;;;22.58;42.62;95732.25;4990537;28;105404;-59
2023/04/22 10:37:56;;;;;;;0.80;0.80;;;;;;;22.44;43.18;95729.91;4995987;28;101818;-59
2023/04/22 10:40:23;;;;;;;0.70;0.70;;;;;;;22.52;43.34;95729.00;4992021;28;102996;-59
2023/04/22 10:42:51;;;;;;;0.70;0.70;;;;;;;22.87;45.88;95723.81;4992279;28;101878;-59
2023/04/22 10:45:19;;;;;;;0.60;0.60;;;;;;;23.09;46.21;95723.28;4990942;28;105829;-59
2023/04/22 10:47:46;;;;;;;0.60;0.60;;;;;;;23.33;40.66;95725.94;4990572;28;105604;-59
2023/04/22 10:50:20;;;;;;;0.60;0.60;;;;;;;23.73;38.82;95718.47;4990713;28;102236;-59
2023/04/22 10:52:51;;;;;;;1.17;0.60;;;;;;;23.98;36.69;95714.47;4992531;28;102365;-59
2023/04/22 10:55:19;;;;;;;0.43;0.43;;;;;;;23.81;35.67;95721.00;4991316;28;102594;-59
2023/04/22 10:57:48;;;;;;;0.60;0.60;;;;;;;23.71;34.91;95712.59;4992074;28;101772;-59
2023/04/22 11:00:30;;;;;;;0.40;0.40;;;;;;;23.42;35.33;95711.06;4994905;28;102141;-59
2023/04/22 11:03:12;;;;;;;1.20;1.20;;;;;;;24.02;38.50;95710.69;4992611;28;102148;-59
2023/04/22 11:05:40;;;;;;;0.60;0.60;;;;;;;24.28;36.70;95715.56;4992089;28;102901;-59
2023/04/22 11:08:19;;;;;;;0.57;0.57;;;;;;;24.25;35.74;95714.34;4991148;28;102573;-59
2023/04/22 11:10:48;;;;;;;1.30;0.60;;;;;;;22.72;35.40;95703.63;4992006;28;101679;-59
2023/04/22 11:13:17;;;;;;;1.10;0.50;;;;;;;23.52;36.36;95704.34;4990438;28;105361;-59
2023/04/22 11:15:47;;;;;;;0.60;0.60;;;;;;;24.08;35.46;95703.09;4989730;28;105782;-59
2023/04/22 11:18:17;;;;;;;0.60;0.60;;;;;;;23.85;32.19;95699.34;4991563;28;101805;-59
2023/04/22 11:20:47;;;;;;;1.70;0.70;;;;;;;24.33;35.29;95691.66;4991609;28;102475;-59
2023/04/22 11:23:20;;;;;;;0.60;0.50;;;;;;;24.46;35.63;95698.53;4992943;28;105206;-59
2023/04/22 11:25:47;;;;;;;1.40;0.60;;;;;;;24.87;34.99;95699.84;4990535;28;105063;-59
2023/04/22 11:28:14;;;;;;;0.50;0.50;;;;;;;25.01;33.17;95700.91;4989739;28;105626;-59
2023/04/22 11:30:41;;;;;;;0.50;0.40;;;;;;;24.48;30.83;95696.25;4990461;28;101827;-59
2023/04/22 11:33:09;;;;;;;0.47;0.47;;;;;;;24.82;34.19;95686.50;4991772;28;102468;-59
2023/04/22 11:35:37;;;;;;;0.40;0.40;;;;;;;25.05;32.43;95690.09;4989515;28;105911;-59
2023/04/22 11:38:07;;;;;;;1.30;0.60;;;;;;;25.32;33.00;95686.38;4990172;28;101949;-59
2023/04/22 11:40:38;;;;;;;0.57;0.57;;;;;;;25.73;33.23;95699.19;4990223;28;104853;-59
2023/04/22 11:43:06;;;;;;;2.23;0.50;;;;;;;25.55;31.47;95682.53;4990889;28;103225;-59
2023/04/22 11:45:35;;;;;;;0.40;0.40;;;;;;;25.83;32.87;95687.69;4993466;28;101834;-59
2023/04/22 11:48:04;;;;;;;0.50;0.50;;;;;;;25.51;33.45;95678.19;4989445;28;105298;-59